Time;durP1;ratioP1;P1;durP2;ratioP2;P2;SDS_P1;SDS_P2;PMS_P1;PMS_P2;Temp;Humidity;BMP_temperature;BMP_pressure;BME280_temperature;BME280_humidity;BME280_pressure;Samples;Min_cycle;Max_cycle;Signal;HPM_P1;HPM_P2
2021/06/26 00:00:55;;;;;;;8.13;4.07;;;;;;;13.02;98.55;100915.41;4938631;29;20027;-77
2021/06/26 00:03:22;;;;;;;9.70;4.38;;;;;;;13.09;100.00;100919.63;4938712;29;20031;-77
2021/06/26 00:05:48;;;;;;;7.90;4.65;;;;;;;12.97;100.00;100914.69;4921285;29;20027;-77
2021/06/26 00:08:14;;;;;;;6.13;4.30;;;;;;;13.13;100.00;100914.28;4938217;29;20024;-77
2021/06/26 00:10:41;;;;;;;6.68;4.47;;;;;;;13.21;100.00;100913.25;4938309;29;20032;-78
2021/06/26 00:13:07;;;;;;;5.95;4.10;;;;;;;13.14;100.00;100909.94;4938081;29;20102;-77
2021/06/26 00:15:32;;;;;;;7.13;4.40;;;;;;;12.93;100.00;100916.50;4938328;29;20083;-77
2021/06/26 00:17:57;;;;;;;6.55;4.07;;;;;;;12.79;100.00;100906.38;4938242;29;20030;-77
2021/06/26 00:20:22;;;;;;;7.40;4.22;;;;;;;12.74;100.00;100915.16;4920973;29;20036;-77
2021/06/26 00:22:48;;;;;;;8.52;4.00;;;;;;;12.66;100.00;100912.75;4937992;29;20070;-77
2021/06/26 00:25:13;;;;;;;6.63;4.35;;;;;;;12.75;100.00;100909.09;4938171;29;20362;-77
2021/06/26 00:27:38;;;;;;;8.43;4.50;;;;;;;12.76;100.00;100908.19;4937995;29;20039;-77
2021/06/26 00:30:04;;;;;;;8.20;4.45;;;;;;;12.70;100.00;100908.31;4938151;29;20032;-77
2021/06/26 00:32:30;;;;;;;7.35;4.38;;;;;;;12.67;100.00;100910.09;4937671;29;20106;-77
2021/06/26 00:34:55;;;;;;;6.20;3.85;;;;;;;12.61;100.00;100914.56;4937806;29;20119;-77
2021/06/26 00:37:20;;;;;;;8.55;4.50;;;;;;;12.56;100.00;100917.28;4937805;29;20480;-77
2021/06/26 00:39:46;;;;;;;7.05;3.90;;;;;;;12.54;100.00;100916.44;4937677;29;20031;-77
2021/06/26 00:42:11;;;;;;;6.82;3.60;;;;;;;12.51;100.00;100913.06;4937684;29;20055;-77
2021/06/26 00:44:37;;;;;;;6.32;3.97;;;;;;;12.50;100.00;100922.63;4920586;29;20118;-77
2021/06/26 00:47:05;;;;;;;7.10;4.35;;;;;;;12.62;100.00;100930.16;4920580;29;20028;-77
2021/06/26 00:49:30;;;;;;;8.15;4.50;;;;;;;12.70;100.00;100923.94;4938067;29;20032;-78
2021/06/26 00:51:55;;;;;;;7.00;4.22;;;;;;;12.75;100.00;100922.09;4937336;29;20439;-78
2021/06/26 00:54:21;;;;;;;7.38;4.18;;;;;;;12.67;100.00;100925.72;4919693;29;20550;-78
2021/06/26 00:56:46;;;;;;;8.02;3.90;;;;;;;12.57;100.00;100923.34;4937547;29;20039;-78
2021/06/26 00:59:13;;;;;;;8.98;4.28;;;;;;;12.67;100.00;100922.25;4937498;29;20035;-78
2021/06/26 01:01:38;;;;;;;6.40;3.53;;;;;;;12.84;100.00;100914.94;4937373;29;20034;-78
2021/06/26 01:04:04;;;;;;;7.53;3.88;;;;;;;12.67;100.00;100911.84;4920071;29;20392;-77
2021/06/26 01:06:29;;;;;;;6.10;3.63;;;;;;;12.76;100.00;100905.59;4937180;29;20027;-77
2021/06/26 01:08:54;;;;;;;5.82;3.30;;;;;;;12.87;99.60;100906.22;4920438;29;20027;-77
2021/06/26 01:11:20;;;;;;;8.45;3.88;;;;;;;12.72;99.07;100902.22;4937291;29;20027;-77
2021/06/26 01:13:45;;;;;;;5.28;2.97;;;;;;;12.53;100.00;100901.75;4937055;29;20031;-77
2021/06/26 01:17:03;;;;;;;5.80;3.40;;;;;;;12.48;98.56;100905.31;4937256;29;20032;-77
2021/06/26 01:19:28;;;;;;;5.80;3.15;;;;;;;12.44;97.38;100904.53;4919918;29;20492;-77
2021/06/26 01:21:54;;;;;;;6.00;2.97;;;;;;;12.42;97.47;100906.28;4937013;29;20035;-77
2021/06/26 01:24:20;;;;;;;5.70;3.17;;;;;;;12.47;97.05;100900.97;4937022;29;20376;-77
2021/06/26 01:26:46;;;;;;;8.27;3.13;;;;;;;12.46;96.94;100904.47;4936896;29;20480;-77
2021/06/26 01:29:12;;;;;;;7.03;3.00;;;;;;;12.37;97.15;100901.16;4919694;29;20115;-77
2021/06/26 01:31:38;;;;;;;7.38;3.22;;;;;;;12.32;97.66;100902.19;4919793;29;20118;-77
2021/06/26 01:34:03;;;;;;;7.07;3.60;;;;;;;12.23;99.14;100903.22;4936699;29;20400;-77
2021/06/26 01:36:28;;;;;;;8.30;3.90;;;;;;;12.16;100.00;100901.59;4919727;29;20024;-77
2021/06/26 01:38:55;;;;;;;6.03;3.60;;;;;;;12.15;99.84;100900.75;4937006;29;20075;-78
2021/06/26 01:41:22;;;;;;;10.57;4.03;;;;;;;12.15;99.69;100908.53;4936661;29;20023;-78
2021/06/26 01:43:47;;;;;;;9.02;4.10;;;;;;;12.14;99.04;100906.84;4919525;29;20392;-78
2021/06/26 01:46:12;;;;;;;8.10;3.88;;;;;;;12.28;100.00;100906.56;4936525;29;20033;-78
2021/06/26 01:48:37;;;;;;;6.43;4.03;;;;;;;12.43;99.43;100910.59;4919498;29;20418;-78
2021/06/26 01:51:03;;;;;;;5.60;3.00;;;;;;;12.50;99.54;100912.22;4936491;29;20028;-78
2021/06/26 01:53:28;;;;;;;7.45;3.83;;;;;;;12.41;100.00;100908.03;4919449;29;20051;-78
2021/06/26 05:41:10;;;;;;;6.05;2.70;;;;;;;16.88;75.35;100970.97;4937724;29;20046;-78
2021/06/26 05:43:36;;;;;;;7.55;2.70;;;;;;;16.93;74.50;100977.75;4937209;29;20424;-78
2021/06/26 05:46:01;;;;;;;6.55;2.75;;;;;;;16.99;74.68;100977.53;4920400;29;20028;-78
2021/06/26 05:48:26;;;;;;;6.05;3.15;;;;;;;17.05;75.77;100979.03;4937813;29;20027;-78
2021/06/26 05:50:52;;;;;;;5.72;2.50;;;;;;;17.07;76.13;100979.84;4920076;29;20152;-78
2021/06/26 05:53:18;;;;;;;5.68;2.85;;;;;;;17.05;74.73;100973.78;4960068;23;20063;-79
2021/06/26 05:55:56;;;;;;;5.82;2.78;;;;;;;17.14;75.97;100976.06;4941684;29;20091;-79
2021/06/26 05:58:22;;;;;;;9.60;3.00;;;;;;;17.32;74.69;100978.88;4942319;29;20052;-79
2021/06/26 06:00:47;;;;;;;6.30;2.53;;;;;;;17.45;71.81;100977.47;4925209;29;20051;-79
2021/06/26 06:03:13;;;;;;;5.63;2.42;;;;;;;17.47;71.46;100979.13;4941419;29;20518;-79
2021/06/26 06:05:38;;;;;;;5.65;2.30;;;;;;;17.85;69.21;100981.13;4940650;29;20035;-79
2021/06/26 06:08:03;;;;;;;5.57;2.40;;;;;;;18.23;68.19;100976.03;4941521;29;20079;-79
2021/06/26 06:10:29;;;;;;;5.90;2.60;;;;;;;18.50;66.59;100981.84;4940979;29;20066;-79
2021/06/26 06:12:54;;;;;;;4.85;2.60;;;;;;;19.45;62.41;100970.41;4940774;29;20034;-79
2021/06/26 06:15:19;;;;;;;6.30;2.40;;;;;;;20.03;61.53;100982.50;4941601;29;20028;-79
2021/06/26 06:17:45;;;;;;;7.57;2.60;;;;;;;19.77;60.62;100976.78;4942677;29;20055;-79
2021/06/26 06:20:10;;;;;;;8.15;3.13;;;;;;;20.06;60.37;100979.69;4924963;29;20028;-79
2021/06/26 06:22:36;;;;;;;4.97;2.45;;;;;;;20.50;58.54;100989.72;4941134;29;20024;-79
2021/06/26 06:25:06;;;;;;;6.82;2.67;;;;;;;20.20;58.89;100989.53;4923995;29;20483;-79
2021/06/26 06:27:31;;;;;;;5.45;2.13;;;;;;;21.25;58.28;100990.09;4940813;29;20034;-79
2021/06/26 06:29:56;;;;;;;6.38;2.50;;;;;;;20.47;58.55;100992.50;4925065;29;20023;-79
2021/06/26 06:32:22;;;;;;;5.95;2.38;;;;;;;20.05;56.44;100990.34;4941737;29;20030;-79
2021/06/26 06:34:47;;;;;;;7.38;2.72;;;;;;;19.82;58.98;100994.94;4924206;29;20035;-79
2021/06/26 06:37:13;;;;;;;7.20;2.60;;;;;;;20.00;60.25;101001.94;4923490;29;20103;-79
2021/06/26 06:39:38;;;;;;;6.32;2.28;;;;;;;20.39;61.19;101003.47;4941691;29;20035;-79
2021/06/26 06:42:04;;;;;;;7.45;2.85;;;;;;;20.64;59.33;101008.31;4924937;29;20073;-79
2021/06/26 06:44:29;;;;;;;6.05;1.90;;;;;;;21.24;57.80;101012.97;4924731;29;20034;-79
2021/06/26 06:46:54;;;;;;;5.03;2.25;;;;;;;21.99;54.15;101007.88;4942155;29;20030;-79
2021/06/26 06:49:20;;;;;;;6.15;2.45;;;;;;;22.08;53.72;101011.78;4940799;29;20101;-79
2021/06/26 06:51:45;;;;;;;6.53;2.33;;;;;;;22.72;50.96;101019.34;4944177;29;20132;-79
2021/06/26 06:54:10;;;;;;;5.85;1.95;;;;;;;23.46;48.69;101009.41;4945370;29;20035;-79
2021/06/26 06:56:35;;;;;;;5.60;2.17;;;;;;;23.31;47.82;101016.56;4946700;29;20034;-79
2021/06/26 06:59:00;;;;;;;6.17;2.47;;;;;;;22.68;50.15;101019.59;4946541;29;20275;-80
2021/06/26 07:01:27;;;;;;;6.67;2.70;;;;;;;23.29;47.53;101007.84;4947390;29;20728;-79
2021/06/26 07:03:53;;;;;;;6.50;2.38;;;;;;;24.34;45.62;101012.38;4947060;29;20259;-79
2021/06/26 07:06:18;;;;;;;6.03;2.08;;;;;;;23.64;47.97;101012.63;4928922;29;20024;-79
2021/06/26 07:08:43;;;;;;;7.03;2.00;;;;;;;24.54;47.26;101021.66;4927468;29;20032;-79
2021/06/26 07:11:09;;;;;;;5.78;2.55;;;;;;;23.91;46.03;101017.09;4945688;29;20755;-79
2021/06/26 07:13:34;;;;;;;5.25;2.35;;;;;;;23.67;48.45;101010.63;4945377;29;20031;-79
2021/06/26 07:16:00;;;;;;;6.55;2.65;;;;;;;23.84;45.40;101016.66;4945376;29;20039;-79
2021/06/26 07:18:26;;;;;;;6.53;2.63;;;;;;;23.81;45.25;101008.91;4945789;29;20038;-79
2021/06/26 07:20:51;;;;;;;5.70;2.58;;;;;;;23.41;45.71;101016.81;4929746;29;20034;-79
2021/06/26 07:23:16;;;;;;;4.28;1.90;;;;;;;24.34;47.21;101023.84;4945022;29;20090;-79
2021/06/26 07:25:42;;;;;;;5.97;2.88;;;;;;;23.00;45.64;101019.44;4944819;29;20142;-79
2021/06/26 07:28:07;;;;;;;6.00;2.43;;;;;;;23.87;45.86;101019.94;4945889;29;20034;-79
2021/06/26 07:30:32;;;;;;;5.32;2.40;;;;;;;24.96;44.34;101015.13;4946988;29;20336;-79
2021/06/26 07:32:58;;;;;;;5.57;3.10;;;;;;;24.52;43.76;101012.97;4947616;29;20024;-79
2021/06/26 07:35:23;;;;;;;6.63;3.37;;;;;;;23.88;45.53;101020.78;4928845;29;20091;-79
2021/06/26 07:37:48;;;;;;;6.35;2.90;;;;;;;23.91;46.90;101012.66;4926324;29;20276;-79
2021/06/26 07:40:14;;;;;;;9.07;2.72;;;;;;;24.75;44.87;101006.03;4943820;29;20436;-79
2021/06/26 07:42:40;;;;;;;7.88;2.80;;;;;;;24.77;45.43;101012.91;4944115;29;20028;-79
2021/06/26 07:45:06;;;;;;;7.65;3.95;;;;;;;23.64;46.20;101021.44;4943792;29;20515;-79
2021/06/26 07:47:32;;;;;;;7.93;4.32;;;;;;;23.57;44.92;101009.53;4944544;29;20032;-79
2021/06/26 07:49:57;;;;;;;7.07;3.95;;;;;;;24.11;45.54;101009.50;4944602;29;20031;-79
2021/06/26 07:52:22;;;;;;;6.53;3.53;;;;;;;24.20;44.19;101010.69;4925516;29;20381;-79
2021/06/26 07:54:47;;;;;;;8.52;3.50;;;;;;;24.78;44.04;101009.34;4926464;29;20507;-79
2021/06/26 07:57:13;;;;;;;6.87;3.77;;;;;;;23.77;44.88;101008.28;4942855;29;20155;-79
2021/06/26 07:59:38;;;;;;;6.35;3.90;;;;;;;23.58;45.95;101011.22;4925610;29;20271;-80
2021/06/26 08:02:03;;;;;;;8.02;3.28;;;;;;;23.63;46.92;101001.19;4942422;29;20024;-80
2021/06/26 08:04:29;;;;;;;7.55;3.28;;;;;;;24.42;45.51;101007.44;4943181;29;20078;-80
2021/06/26 08:06:54;;;;;;;7.07;3.90;;;;;;;24.28;45.29;101002.19;4943181;29;20039;-80
2021/06/26 08:09:19;;;;;;;7.00;3.40;;;;;;;23.93;45.70;101007.25;4941955;29;20039;-80
2021/06/26 08:11:44;;;;;;;7.07;3.27;;;;;;;24.85;42.97;101001.78;4941478;29;20406;-80
2021/06/26 08:14:10;;;;;;;5.97;3.30;;;;;;;25.29;45.25;101005.72;4941814;29;20779;-79
2021/06/26 08:16:35;;;;;;;6.70;4.03;;;;;;;23.86;44.65;101001.50;4941249;29;20281;-79
2021/06/26 08:19:00;;;;;;;9.88;4.85;;;;;;;24.16;43.60;100998.59;4940563;29;20032;-80
2021/06/26 08:21:26;;;;;;;9.48;4.32;;;;;;;24.74;43.00;101007.84;4940637;29;20028;-79
2021/06/26 08:23:53;;;;;;;7.32;4.05;;;;;;;24.91;42.03;100996.03;4923991;29;20032;-79
2021/06/26 08:26:18;;;;;;;7.45;4.57;;;;;;;24.09;44.22;101002.63;4923501;29;20075;-80
2021/06/26 08:28:44;;;;;;;9.48;4.22;;;;;;;24.18;43.98;100996.69;4940431;29;20440;-79
2021/06/26 08:31:09;;;;;;;9.70;4.55;;;;;;;23.92;46.20;101001.09;4940088;29;20028;-79
2021/06/26 08:33:34;;;;;;;8.93;5.50;;;;;;;23.88;44.24;100994.31;4924170;29;20035;-79
2021/06/26 08:36:00;;;;;;;7.67;4.73;;;;;;;23.15;46.56;101000.81;4924491;29;20350;-79
2021/06/26 08:38:25;;;;;;;6.82;4.20;;;;;;;22.69;48.73;101002.78;4924674;29;20294;-79
2021/06/26 08:40:55;;;;;;;8.95;4.75;;;;;;;22.88;47.12;100995.44;4923207;29;20059;-79
2021/06/26 08:43:21;;;;;;;8.43;4.80;;;;;;;22.36;47.98;100995.16;4939997;29;20027;-79
2021/06/26 08:45:47;;;;;;;8.23;5.25;;;;;;;22.59;48.48;100997.22;4922819;29;20031;-79
2021/06/26 08:48:12;;;;;;;9.27;5.85;;;;;;;22.93;47.69;100992.47;4940138;29;20032;-79
2021/06/26 08:50:39;;;;;;;8.55;4.30;;;;;;;22.93;49.82;101000.41;4939512;29;20527;-80
2021/06/26 08:53:05;;;;;;;11.60;5.18;;;;;;;22.80;49.15;100997.69;4922205;29;20400;-80
2021/06/26 08:55:30;;;;;;;8.35;5.18;;;;;;;23.06;48.14;100995.22;4939503;29;20042;-79
2021/06/26 08:57:55;;;;;;;8.55;4.60;;;;;;;23.67;46.54;100992.09;4940237;29;20027;-81
2021/06/26 09:00:26;;;;;;;8.05;5.30;;;;;;;23.30;45.22;101003.41;4940547;29;20027;-80
2021/06/26 09:03:04;;;;;;;8.68;5.55;;;;;;;23.75;44.17;100994.28;4923307;29;20079;-79
2021/06/26 09:05:30;;;;;;;8.60;4.85;;;;;;;25.00;43.02;100998.03;4923503;29;20028;-80
2021/06/26 09:08:07;;;;;;;11.77;4.30;;;;;;;25.37;43.02;100991.88;4942991;29;20076;-80
2021/06/26 09:10:33;;;;;;;7.03;4.60;;;;;;;24.95;43.96;101004.63;4927786;29;20417;-80
2021/06/26 09:12:58;;;;;;;7.88;4.68;;;;;;;24.67;44.16;101000.44;4926037;29;20019;-80
2021/06/26 09:15:26;;;;;;;8.70;4.70;;;;;;;24.35;44.56;100993.75;4925570;29;20031;-80
2021/06/26 09:17:53;;;;;;;9.20;4.45;;;;;;;25.55;44.58;101000.28;4926122;29;20027;-81
2021/06/26 09:20:21;;;;;;;9.93;5.10;;;;;;;25.44;43.91;100990.47;4925113;29;20404;-80
2021/06/26 09:22:51;;;;;;;7.20;4.90;;;;;;;24.96;42.20;101001.00;4925607;29;20031;-80
2021/06/26 09:25:31;;;;;;;8.95;4.10;;;;;;;25.29;43.45;101007.53;4926517;29;20074;-79
2021/06/26 09:28:02;;;;;;;7.30;4.53;;;;;;;24.82;44.51;100996.69;4930201;29;20031;-80
2021/06/26 09:30:35;;;;;;;7.00;4.70;;;;;;;25.04;46.20;100996.00;4929933;29;20027;-79
2021/06/26 09:33:02;;;;;;;7.88;3.75;;;;;;;26.49;43.25;100994.94;4944941;29;20027;-80
2021/06/26 09:35:28;;;;;;;5.90;3.95;;;;;;;26.64;40.27;100998.19;4943618;29;20102;-79
2021/06/26 09:37:55;;;;;;;7.03;4.47;;;;;;;26.35;40.26;100995.13;4945063;29;20489;-79
2021/06/26 09:40:28;;;;;;;8.48;4.65;;;;;;;27.45;39.31;100986.34;4945563;29;20023;-79
2021/06/26 09:42:54;;;;;;;6.65;4.05;;;;;;;26.82;39.87;101003.88;4945497;29;20027;-79
2021/06/26 09:45:20;;;;;;;7.18;4.55;;;;;;;26.59;39.08;100997.69;4947281;29;20091;-79
2021/06/26 09:47:46;;;;;;;6.65;4.28;;;;;;;26.01;41.63;100999.53;4946020;29;20031;-79
2021/06/26 09:50:21;;;;;;;6.25;4.15;;;;;;;25.99;41.60;100999.66;4947628;29;20078;-79
2021/06/26 09:52:54;;;;;;;7.07;4.30;;;;;;;26.01;44.43;101000.38;4946777;29;20503;-79
2021/06/26 09:55:22;;;;;;;8.57;3.50;;;;;;;25.58;44.47;100998.25;4947732;29;20032;-79
2021/06/26 09:57:50;;;;;;;6.43;3.90;;;;;;;25.69;43.39;100994.81;4947027;29;20102;-79
2021/06/26 10:00:17;;;;;;;7.05;4.40;;;;;;;24.94;43.96;101001.13;4947393;29;20070;-79
2021/06/26 10:02:44;;;;;;;9.35;4.38;;;;;;;25.27;42.64;100994.34;4929367;29;20067;-79
2021/06/26 10:05:11;;;;;;;7.95;4.47;;;;;;;24.52;43.56;101005.84;4947180;29;20083;-79
2021/06/26 10:07:39;;;;;;;7.07;4.18;;;;;;;24.56;43.91;100995.88;4946847;29;20028;-79
2021/06/26 10:10:05;;;;;;;8.50;5.00;;;;;;;24.36;44.24;100991.94;4947203;29;20075;-79
2021/06/26 10:13:08;;;;;;;8.25;3.90;;;;;;;24.85;45.83;100991.16;4929775;29;20019;-79
2021/06/26 10:32:30;;;;;;;8.25;4.57;;;;;;;25.43;44.59;100986.97;4946008;29;20164;-79
2021/06/26 10:34:58;;;;;;;10.95;5.05;;;;;;;25.33;44.02;100985.94;4929086;29;20023;-79
2021/06/26 10:37:24;;;;;;;8.50;4.78;;;;;;;25.91;42.17;100988.75;4945131;29;20087;-79
2021/06/26 10:40:09;;;;;;;7.72;4.70;;;;;;;27.46;40.13;100984.50;4945425;29;20024;-79
2021/06/26 10:42:37;;;;;;;9.70;5.15;;;;;;;28.20;36.82;100981.84;4944489;29;20036;-79
2021/06/26 10:45:06;;;;;;;6.85;4.97;;;;;;;27.45;38.90;100983.66;4945290;29;20027;-79
2021/06/26 10:47:41;;;;;;;7.80;5.60;;;;;;;27.22;39.46;100985.56;4945854;29;20028;-79
